Time;durP1;ratioP1;P1;durP2;ratioP2;P2;SDS_P1;SDS_P2;PMS_P1;PMS_P2;Temp;Humidity;BMP_temperature;BMP_pressure;BME280_temperature;BME280_humidity;BME280_pressure;Samples;Min_cycle;Max_cycle;Signal;HPM_P1;HPM_P2
2021/03/13 00:00:34;;;;;;;12.50;7.72;;;0.00;92.80;;;;;;5054336;28;20025;-66
2021/03/13 00:03:00;;;;;;;7.05;3.97;;;0.00;92.90;;;;;;5053681;28;20021;-68
2021/03/13 00:05:34;;;;;;;11.45;7.00;;;0.10;92.80;;;;;;5053862;28;20052;-66
2021/03/13 00:08:01;;;;;;;13.25;7.43;;;0.10;93.00;;;;;;5053750;28;20025;-66
2021/03/13 00:10:26;;;;;;;14.80;7.45;;;0.00;93.10;;;;;;5053964;28;20025;-66
2021/03/13 00:12:53;;;;;;;11.18;6.93;;;0.10;93.10;;;;;;5052222;28;20389;-66
2021/03/13 00:15:19;;;;;;;14.52;8.18;;;0.10;93.10;;;;;;5053763;28;20047;-66
2021/03/13 00:17:47;;;;;;;10.05;6.28;;;0.20;93.20;;;;;;5053817;28;20379;-66
2021/03/13 00:20:16;;;;;;;12.38;6.32;;;0.20;93.20;;;;;;5052329;28;20035;-66
2021/03/13 00:22:43;;;;;;;11.82;6.72;;;0.30;93.30;;;;;;5052579;28;20035;-66
2021/03/13 00:25:11;;;;;;;12.70;7.25;;;0.30;93.30;;;;;;5053159;28;20367;-66
2021/03/13 00:27:45;;;;;;;15.32;8.35;;;0.30;93.30;;;;;;5053521;28;20517;-66
2021/03/13 00:30:33;;;;;;;14.57;8.65;;;0.40;93.30;;;;;;5052800;28;20033;-66
2021/03/13 00:33:05;;;;;;;16.08;7.93;;;0.40;93.30;;;;;;5052219;28;20033;-72
2021/03/13 00:35:31;;;;;;;16.45;9.18;;;0.40;93.30;;;;;;5051878;28;20108;-68
2021/03/13 00:37:59;;;;;;;13.18;7.78;;;0.40;93.40;;;;;;5053664;28;20036;-67
2021/03/13 00:40:26;;;;;;;15.10;8.27;;;0.50;93.40;;;;;;5051908;28;20029;-67
2021/03/13 00:42:53;;;;;;;14.02;8.15;;;0.50;93.50;;;;;;5053136;28;20017;-67
2021/03/13 00:45:21;;;;;;;15.10;8.50;;;0.60;93.50;;;;;;5051706;28;20044;-67
2021/03/13 00:47:48;;;;;;;16.77;7.43;;;0.60;93.50;;;;;;5051780;28;20028;-67
2021/03/13 00:50:16;;;;;;;16.70;8.88;;;0.70;93.50;;;;;;5053192;28;20106;-67
2021/03/13 00:52:42;;;;;;;13.82;7.32;;;0.70;93.50;;;;;;5051738;28;20029;-66
2021/03/13 00:55:09;;;;;;;18.00;9.27;;;0.70;93.50;;;;;;5052982;28;20032;-67
2021/03/13 00:57:36;;;;;;;20.52;9.68;;;0.80;93.50;;;;;;5052815;28;20029;-67
2021/03/13 01:00:04;;;;;;;24.60;10.55;;;0.80;93.50;;;;;;5053058;28;20021;-67
2021/03/13 01:02:30;;;;;;;22.90;10.75;;;0.90;93.60;;;;;;5051723;28;20116;-67
2021/03/13 01:04:55;;;;;;;22.15;9.85;;;0.90;93.60;;;;;;5051152;28;20132;-67
2021/03/13 01:07:21;;;;;;;24.83;11.38;;;1.00;93.60;;;;;;5052558;28;20048;-67
2021/03/13 01:09:47;;;;;;;24.33;11.55;;;1.00;93.90;;;;;;5053052;28;20395;-67
2021/03/13 01:12:12;;;;;;;28.10;12.52;;;1.00;93.70;;;;;;5051715;28;20029;-67
2021/03/13 01:14:38;;;;;;;27.27;11.88;;;1.10;93.70;;;;;;5052579;28;20446;-67
2021/03/13 01:17:04;;;;;;;27.88;10.27;;;1.10;93.70;;;;;;5051227;28;20471;-67
2021/03/13 01:19:30;;;;;;;30.35;13.15;;;1.10;93.70;;;;;;5052682;28;20021;-66
2021/03/13 01:21:56;;;;;;;29.67;13.15;;;1.20;93.80;;;;;;5052388;28;20060;-67
2021/03/13 01:24:22;;;;;;;23.45;11.30;;;1.20;93.90;;;;;;5052022;28;20091;-67
2021/03/13 01:26:47;;;;;;;22.77;11.65;;;1.30;94.10;;;;;;5052418;28;20114;-66
2021/03/13 01:29:13;;;;;;;26.23;12.38;;;1.30;93.80;;;;;;5052662;28;20455;-66
2021/03/13 01:31:39;;;;;;;24.75;11.85;;;1.30;93.90;;;;;;5051137;28;20075;-67
2021/03/13 01:34:04;;;;;;;24.08;12.05;;;1.30;94.00;;;;;;5052527;28;20539;-66
2021/03/13 01:36:30;;;;;;;21.80;11.43;;;1.30;94.20;;;;;;5051704;28;20468;-66
2021/03/13 01:38:57;;;;;;;24.52;12.18;;;1.40;94.40;;;;;;5052055;28;20021;-66
2021/03/13 01:41:22;;;;;;;30.27;13.88;;;1.40;94.50;;;;;;5052398;28;20032;-66
2021/03/13 01:43:48;;;;;;;27.63;13.50;;;1.40;94.50;;;;;;5052431;28;20028;-67
2021/03/13 01:46:14;;;;;;;26.85;12.68;;;1.40;94.70;;;;;;5050838;28;20078;-67
2021/03/13 01:48:47;;;;;;;27.85;14.05;;;1.50;94.90;;;;;;5052449;28;20025;-67
2021/03/13 01:51:14;;;;;;;21.15;10.68;;;1.50;95.10;;;;;;5052208;28;20293;-67
2021/03/13 01:53:39;;;;;;;30.70;15.88;;;1.50;95.10;;;;;;5051474;28;20143;-66
2021/03/13 01:56:05;;;;;;;32.45;15.82;;;1.60;95.20;;;;;;5052387;28;20068;-67
2021/03/13 01:58:31;;;;;;;35.45;15.18;;;1.60;95.30;;;;;;5051258;28;20029;-67
2021/03/13 02:00:57;;;;;;;37.97;16.00;;;1.60;95.40;;;;;;5052038;28;20079;-69
2021/03/13 02:03:23;;;;;;;55.20;19.00;;;1.60;95.40;;;;;;5052066;28;20035;-67
2021/03/13 02:05:51;;;;;;;51.70;18.55;;;1.60;95.50;;;;;;5052435;28;20084;-67
2021/03/13 02:08:53;;;;;;;50.38;19.20;;;1.70;95.50;;;;;;5052185;28;20051;-67
2021/03/13 02:11:33;;;;;;;59.97;22.88;;;1.70;95.60;;;;;;5051619;28;20045;-67
2021/03/13 02:14:33;;;;;;;57.75;22.15;;;1.70;95.60;;;;;;5052388;28;20021;-67
2021/03/13 02:17:15;;;;;;;49.35;20.40;;;1.70;95.70;;;;;;5038625;28;20032;-73
2021/03/13 02:20:23;;;;;;;61.25;23.35;;;1.70;95.80;;;;;;5050559;28;20078;-67
2021/03/13 02:22:51;;;;;;;73.72;30.17;;;1.70;95.80;;;;;;5052561;28;20021;-67
2021/03/13 02:25:28;;;;;;;48.95;18.88;;;1.70;95.90;;;;;;5051820;28;20029;-67
2021/03/13 02:28:16;;;;;;;61.45;24.60;;;1.70;96.10;;;;;;5050829;28;20420;-67
2021/03/13 02:30:43;;;;;;;71.97;27.13;;;1.80;96.10;;;;;;5039262;28;20025;-67
2021/03/13 02:33:33;;;;;;;68.95;28.67;;;1.80;96.30;;;;;;5051935;28;20032;-67
2021/03/13 02:36:01;;;;;;;113.20;38.88;;;1.80;96.40;;;;;;5041074;28;20039;-67
2021/03/13 02:38:31;;;;;;;89.95;32.03;;;1.90;96.40;;;;;;5055334;28;20096;-67
2021/03/13 02:41:02;;;;;;;47.50;19.85;;;1.90;96.40;;;;;;5055361;28;20052;-67
2021/03/13 02:43:28;;;;;;;53.85;22.00;;;1.90;96.40;;;;;;5055797;28;20029;-67
2021/03/13 02:45:58;;;;;;;50.92;22.10;;;1.90;96.40;;;;;;5055356;28;20032;-67
2021/03/13 02:48:25;;;;;;;56.60;24.10;;;2.00;96.50;;;;;;5055621;28;20032;-67
2021/03/13 02:50:52;;;;;;;48.38;20.25;;;2.00;96.50;;;;;;5055225;28;20036;-67
2021/03/13 02:53:20;;;;;;;43.75;19.75;;;2.00;96.50;;;;;;5053841;28;20083;-67
2021/03/13 02:55:47;;;;;;;51.33;19.70;;;2.10;96.70;;;;;;5050605;28;20020;-68
2021/03/13 02:58:14;;;;;;;37.58;16.33;;;2.10;96.70;;;;;;5055556;28;20024;-67
2021/03/13 03:00:42;;;;;;;42.17;18.30;;;2.10;96.60;;;;;;5055152;28;20483;-68
2021/03/13 03:03:10;;;;;;;34.70;17.15;;;2.10;96.60;;;;;;5053516;28;20114;-67
2021/03/13 03:05:37;;;;;;;34.08;16.98;;;2.20;96.60;;;;;;5054897;28;20052;-67
2021/03/13 03:08:06;;;;;;;34.53;17.40;;;2.20;96.60;;;;;;5055360;28;20096;-67
2021/03/13 03:10:38;;;;;;;32.72;15.55;;;2.20;96.50;;;;;;5054785;28;20029;-67
2021/03/13 03:13:07;;;;;;;34.35;16.65;;;2.20;96.50;;;;;;5053450;28;20036;-67
2021/03/13 03:15:33;;;;;;;35.13;17.95;;;2.20;96.40;;;;;;5055015;28;20359;-67
2021/03/13 03:18:19;;;;;;;35.05;16.88;;;2.20;96.40;;;;;;5041038;28;20013;-67
2021/03/13 03:20:47;;;;;;;36.60;14.27;;;2.20;96.60;;;;;;5053709;28;20025;-67
2021/03/13 03:23:13;;;;;;;34.35;15.80;;;2.20;96.40;;;;;;5054732;28;20254;-67
2021/03/13 03:25:39;;;;;;;36.78;17.23;;;2.20;96.30;;;;;;5053456;28;20029;-67
2021/03/13 03:28:04;;;;;;;46.60;18.15;;;2.20;96.40;;;;;;5053387;28;20106;-67
2021/03/13 03:30:33;;;;;;;60.53;24.98;;;2.20;96.40;;;;;;5054532;28;20049;-67
2021/03/13 03:32:59;;;;;;;33.70;15.10;;;2.20;96.50;;;;;;5053151;28;20033;-73
2021/03/13 03:35:26;;;;;;;40.55;18.00;;;2.20;96.60;;;;;;5054016;28;20039;-67
2021/03/13 03:37:54;;;;;;;40.88;19.27;;;2.20;96.70;;;;;;5054647;28;20029;-67
2021/03/13 03:40:21;;;;;;;35.17;17.13;;;2.20;96.80;;;;;;5053353;28;20032;-67
2021/03/13 03:42:57;;;;;;;36.72;18.80;;;2.20;96.90;;;;;;5053004;28;20037;-67
2021/03/13 03:45:24;;;;;;;37.88;19.25;;;2.20;96.90;;;;;;5041777;28;20028;-67
2021/03/13 03:47:51;;;;;;;40.78;19.10;;;2.30;96.90;;;;;;5053926;28;20418;-67
2021/03/13 03:50:21;;;;;;;34.83;17.80;;;2.30;96.90;;;;;;5054252;28;20025;-67
2021/03/13 03:52:54;;;;;;;41.60;19.13;;;2.30;97.00;;;;;;5054629;28;20029;-67
2021/03/13 03:55:22;;;;;;;40.55;19.25;;;2.30;97.10;;;;;;5053758;28;20055;-67
2021/03/13 03:57:50;;;;;;;40.55;19.60;;;2.30;97.00;;;;;;5052689;28;20040;-67
2021/03/13 04:00:18;;;;;;;40.55;19.45;;;2.40;97.10;;;;;;5054024;28;20025;-67
2021/03/13 04:02:45;;;;;;;40.65;20.45;;;2.40;97.10;;;;;;5054433;28;20029;-67
2021/03/13 04:05:13;;;;;;;35.40;17.50;;;2.40;97.10;;;;;;5053227;28;20119;-67
2021/03/13 04:07:40;;;;;;;36.80;18.10;;;2.40;97.10;;;;;;5052807;28;20039;-67
2021/03/13 04:10:07;;;;;;;37.17;18.40;;;2.40;97.10;;;;;;5052608;28;20501;-67
2021/03/13 04:12:36;;;;;;;35.40;19.65;;;2.40;97.20;;;;;;5053799;28;20032;-67
2021/03/13 04:15:01;;;;;;;42.00;19.70;;;2.40;97.20;;;;;;5053895;28;20021;-67
2021/03/13 04:17:32;;;;;;;40.95;19.55;;;2.50;97.30;;;;;;5053485;28;20048;-67
2021/03/13 04:19:59;;;;;;;41.53;20.70;;;2.50;97.30;;;;;;5053596;28;20487;-69
2021/03/13 04:22:25;;;;;;;38.00;20.25;;;2.50;97.30;;;;;;5053468;28;20479;-67
2021/03/13 04:24:51;;;;;;;36.75;19.25;;;2.60;97.10;;;;;;5053802;28;20096;-67
2021/03/13 04:27:18;;;;;;;63.50;25.70;;;2.60;97.10;;;;;;5053163;28;20391;-67
2021/03/13 04:29:45;;;;;;;52.35;25.48;;;2.60;97.10;;;;;;5053997;28;20371;-67
2021/03/13 04:32:16;;;;;;;63.40;27.00;;;2.50;97.20;;;;;;5052257;28;20079;-67
2021/03/13 04:34:44;;;;;;;94.90;37.63;;;2.60;97.40;;;;;;5051846;28;20044;-67
2021/03/13 04:37:10;;;;;;;104.00;37.20;;;2.70;97.50;;;;;;5045386;28;20489;-67
2021/03/13 04:39:38;;;;;;;106.07;39.10;;;2.70;97.30;;;;;;5053317;28;20060;-67
2021/03/13 04:42:04;;;;;;;95.30;37.17;;;2.70;97.40;;;;;;5053545;28;20025;-67
2021/03/13 04:44:32;;;;;;;92.63;34.47;;;2.70;97.60;;;;;;5053155;28;20403;-67
2021/03/13 04:46:58;;;;;;;110.25;39.70;;;2.80;97.70;;;;;;5052006;28;20033;-67
2021/03/13 04:49:23;;;;;;;103.00;38.17;;;2.80;97.20;;;;;;5051324;28;20490;-67
2021/03/13 04:51:49;;;;;;;113.22;41.67;;;2.80;97.10;;;;;;5053113;28;20032;-67
2021/03/13 04:54:15;;;;;;;111.20;42.33;;;2.80;97.10;;;;;;5052066;28;20025;-67
2021/03/13 04:56:41;;;;;;;111.32;38.70;;;2.80;97.30;;;;;;5052671;28;20029;-67
2021/03/13 04:59:07;;;;;;;86.20;34.60;;;2.80;97.50;;;;;;5052005;28;20025;-67
2021/03/13 05:01:33;;;;;;;87.68;33.03;;;2.80;97.40;;;;;;5052820;28;20041;-67
2021/03/13 05:03:59;;;;;;;107.03;38.58;;;2.80;97.30;;;;;;5052874;28;20498;-67
2021/03/13 05:06:25;;;;;;;130.82;43.25;;;2.90;97.40;;;;;;5051502;28;20055;-67
2021/03/13 05:08:51;;;;;;;116.68;41.25;;;2.90;97.30;;;;;;5051225;28;20025;-67
2021/03/13 05:11:16;;;;;;;100.90;33.22;;;2.90;97.20;;;;;;5052708;28;20021;-67
2021/03/13 05:13:43;;;;;;;69.20;29.40;;;2.90;97.10;;;;;;5051274;28;20029;-67
2021/03/13 05:16:08;;;;;;;70.65;28.05;;;2.90;97.20;;;;;;5045665;28;20018;-67
2021/03/13 05:18:34;;;;;;;96.70;36.05;;;3.00;97.10;;;;;;5045981;28;20028;-67
2021/03/13 05:21:00;;;;;;;91.03;34.05;;;3.00;97.40;;;;;;5052242;28;20422;-68
2021/03/13 05:23:26;;;;;;;87.68;33.38;;;3.00;97.50;;;;;;5052740;28;20071;-67
2021/03/13 05:25:52;;;;;;;102.25;36.80;;;3.10;97.70;;;;;;5038493;28;20037;-67
2021/03/13 05:28:18;;;;;;;123.00;41.88;;;3.10;97.70;;;;;;5052594;28;20028;-67
2021/03/13 05:30:43;;;;;;;118.68;38.70;;;3.20;97.80;;;;;;5048341;28;20025;-67
2021/03/13 05:33:09;;;;;;;122.82;40.53;;;3.20;97.80;;;;;;5052574;28;20482;-66
2021/03/13 05:35:37;;;;;;;110.50;39.55;;;3.30;97.80;;;;;;5037086;28;20032;-66
2021/03/13 05:38:04;;;;;;;97.20;37.45;;;3.40;97.90;;;;;;5049030;28;20055;-66
2021/03/13 05:40:29;;;;;;;87.75;35.63;;;3.50;97.60;;;;;;5051058;28;20029;-66
2021/03/13 05:42:55;;;;;;;79.38;31.55;;;3.50;97.70;;;;;;5049946;28;20079;-66
2021/03/13 05:45:21;;;;;;;54.83;24.08;;;3.50;97.80;;;;;;5046946;28;20116;-66
2021/03/13 05:47:48;;;;;;;64.00;26.48;;;3.60;98.00;;;;;;5043452;28;20117;-67
2021/03/13 05:50:16;;;;;;;79.85;29.67;;;3.60;97.40;;;;;;5047269;28;20028;-67
2021/03/13 05:52:54;;;;;;;56.00;22.13;;;3.60;96.80;;;;;;5043360;28;20025;-67
2021/03/13 05:55:20;;;;;;;49.40;22.90;;;3.50;96.60;;;;;;5039231;28;20452;-68
2021/03/13 05:57:52;;;;;;;50.17;24.15;;;3.50;96.20;;;;;;5043479;28;20033;-68
2021/03/13 06:00:19;;;;;;;48.35;20.90;;;3.50;96.30;;;;;;5037044;28;20033;-68
2021/03/13 06:02:45;;;;;;;45.58;21.60;;;3.40;96.30;;;;;;5031345;28;20037;-67
2021/03/13 06:05:12;;;;;;;41.92;20.02;;;3.40;96.40;;;;;;5046984;28;20045;-68
2021/03/13 06:07:38;;;;;;;56.60;22.27;;;3.40;96.40;;;;;;5038522;28;20059;-67
2021/03/13 06:10:05;;;;;;;47.42;23.13;;;3.40;96.70;;;;;;5052830;28;20029;-67
2021/03/13 06:12:30;;;;;;;35.78;19.15;;;3.40;96.60;;;;;;5054696;28;20028;-68
2021/03/13 06:14:56;;;;;;;39.70;20.55;;;3.40;96.40;;;;;;5049843;28;20037;-67
2021/03/13 06:17:24;;;;;;;35.60;19.05;;;3.40;96.20;;;;;;5055163;28;20387;-68
2021/03/13 06:19:51;;;;;;;38.95;20.52;;;3.40;96.30;;;;;;5038733;28;20091;-67
2021/03/13 06:22:38;;;;;;;36.97;19.45;;;3.40;96.40;;;;;;5048694;28;20037;-67
2021/03/13 06:25:25;;;;;;;38.35;20.33;;;3.40;96.40;;;;;;5055763;28;20029;-70
2021/03/13 06:28:03;;;;;;;46.78;23.23;;;3.40;96.60;;;;;;5055106;28;20063;-67
2021/03/13 06:30:34;;;;;;;38.42;20.33;;;3.40;96.90;;;;;;5054307;28;20029;-65
2021/03/13 06:33:00;;;;;;;46.58;22.27;;;3.40;97.00;;;;;;5040411;28;20100;-67
2021/03/13 06:35:27;;;;;;;84.85;31.80;;;3.50;97.10;;;;;;5052026;28;20079;-77
2021/03/13 06:37:54;;;;;;;94.13;36.35;;;3.60;97.00;;;;;;5049936;28;20029;-66
2021/03/13 06:40:29;;;;;;;104.95;42.20;;;3.60;96.90;;;;;;5050502;28;20091;-66
2021/03/13 06:42:55;;;;;;;109.88;42.95;;;3.70;96.90;;;;;;5050627;28;20025;-66
2021/03/13 06:45:22;;;;;;;123.97;47.10;;;3.70;96.70;;;;;;5056577;28;20040;-67
2021/03/13 06:47:49;;;;;;;120.88;47.28;;;3.80;96.90;;;;;;5055371;28;20029;-67
2021/03/13 06:50:16;;;;;;;137.25;51.40;;;3.90;97.00;;;;;;5054112;28;20511;-72
2021/03/13 06:52:44;;;;;;;123.10;45.38;;;4.00;97.20;;;;;;5045066;28;20029;-74
2021/03/13 06:55:26;;;;;;;109.53;43.00;;;4.20;97.20;;;;;;5051134;28;20029;-65
2021/03/13 06:58:05;;;;;;;170.55;63.78;;;4.40;97.60;;;;;;5050701;28;20033;-67
2021/03/13 07:00:35;;;;;;;154.50;64.30;;;4.60;97.50;;;;;;5043209;28;20025;-67
2021/03/13 07:03:15;;;;;;;152.57;62.22;;;5.00;98.20;;;;;;5040747;28;20021;-67
2021/03/13 07:05:45;;;;;;;111.78;47.33;;;5.40;98.60;;;;;;5042164;28;20041;-67
2021/03/13 07:08:29;;;;;;;72.85;34.85;;;5.90;99.00;;;;;;5045260;28;20497;-67
2021/03/13 07:11:08;;;;;;;71.18;34.05;;;6.50;99.80;;;;;;5039115;28;20049;-69
2021/03/13 07:13:39;;;;;;;96.22;44.38;;;7.30;99.90;;;;;;5043599;28;20024;-71
2021/03/13 07:16:33;;;;;;;138.55;62.10;;;7.80;98.90;;;;;;5041696;28;20030;-68
2021/03/13 07:19:11;;;;;;;113.57;48.97;;;8.30;97.10;;;;;;5042427;28;20029;-74
2021/03/13 07:21:41;;;;;;;120.50;50.67;;;8.80;96.30;;;;;;5045015;28;20029;-68
2021/03/13 07:24:09;;;;;;;112.43;48.75;;;9.10;94.80;;;;;;5043167;28;20028;-69
2021/03/13 07:26:40;;;;;;;125.97;54.60;;;9.30;93.80;;;;;;5037010;28;20426;-69
2021/03/13 07:29:08;;;;;;;120.95;55.40;;;9.60;92.50;;;;;;5041018;28;20021;-69
2021/03/13 07:31:40;;;;;;;108.18;50.10;;;9.90;91.80;;;;;;5035092;28;20029;-68
2021/03/13 07:34:19;;;;;;;121.55;56.25;;;10.10;90.20;;;;;;5039030;28;20025;-68
2021/03/13 07:36:51;;;;;;;109.03;49.92;;;10.20;88.80;;;;;;5035573;28;20091;-68
2021/03/13 07:39:21;;;;;;;107.80;48.85;;;10.50;88.80;;;;;;5048509;28;20021;-68
2021/03/13 07:42:02;;;;;;;84.25;38.75;;;10.60;85.80;;;;;;5045740;28;20026;-70
2021/03/13 07:44:29;;;;;;;86.53;40.10;;;10.90;87.30;;;;;;5049014;28;20029;-71
2021/03/13 07:46:56;;;;;;;76.28;34.88;;;11.30;86.80;;;;;;5042542;28;20518;-67
2021/03/13 07:49:23;;;;;;;61.58;33.08;;;11.60;84.70;;;;;;5038951;28;20021;-67
2021/03/13 07:51:49;;;;;;;56.35;29.48;;;11.80;82.20;;;;;;5042732;28;20017;-72
2021/03/13 07:54:16;;;;;;;67.85;35.25;;;11.80;79.70;;;;;;5053100;28;20032;-66
2021/03/13 07:56:43;;;;;;;66.50;33.63;;;11.80;79.40;;;;;;5046995;28;20025;-66
2021/03/13 07:59:10;;;;;;;82.00;41.08;;;11.70;78.50;;;;;;5047580;28;20025;-68
2021/03/13 08:01:52;;;;;;;86.38;38.80;;;11.60;77.70;;;;;;5035817;28;20029;-70
2021/03/13 08:04:43;;;;;;;121.68;51.90;;;11.40;76.30;;;;;;5043790;28;20490;-67
2021/03/13 08:07:10;;;;;;;120.20;51.80;;;11.10;75.30;;;;;;5035864;28;20055;-71
2021/03/13 08:09:44;;;;;;;125.35;49.50;;;10.90;76.00;;;;;;5048730;28;20469;-67
2021/03/13 08:12:11;;;;;;;120.85;47.42;;;10.80;76.20;;;;;;5050891;28;20029;-68
2021/03/13 08:14:37;;;;;;;113.45;48.97;;;10.80;76.70;;;;;;5050415;28;20387;-67
2021/03/13 08:17:11;;;;;;;117.03;53.05;;;10.90;77.60;;;;;;5051268;28;20052;-66
2021/03/13 08:19:42;;;;;;;114.80;48.97;;;11.10;78.50;;;;;;5054333;28;20060;-66
2021/03/13 08:22:10;;;;;;;117.78;50.55;;;11.50;78.30;;;;;;5052440;28;20031;-69
2021/03/13 08:24:47;;;;;;;112.05;48.28;;;11.80;77.60;;;;;;5053782;28;20068;-67
2021/03/13 08:27:15;;;;;;;124.57;54.42;;;12.10;76.70;;;;;;5053535;28;20080;-67
2021/03/13 08:29:51;;;;;;;125.47;53.22;;;12.40;76.50;;;;;;5054178;28;20033;-66
2021/03/13 08:32:23;;;;;;;129.73;54.20;;;12.70;74.90;;;;;;5052513;28;20083;-68
2021/03/13 08:34:49;;;;;;;108.90;49.28;;;12.80;72.80;;;;;;5052199;28;20116;-68
2021/03/13 08:37:21;;;;;;;113.45;51.80;;;12.90;72.30;;;;;;5052389;28;20075;-66
2021/03/13 08:39:47;;;;;;;115.20;50.58;;;13.10;71.70;;;;;;5053539;28;20112;-66
2021/03/13 08:42:31;;;;;;;116.60;52.80;;;13.30;72.50;;;;;;5052317;28;20499;-65
2021/03/13 08:45:32;;;;;;;156.13;62.67;;;13.70;72.60;;;;;;5038648;28;20021;-65
2021/03/13 08:47:58;;;;;;;116.78;50.15;;;14.20;72.30;;;;;;5053193;28;20036;-65
2021/03/13 08:50:45;;;;;;;105.80;45.65;;;14.40;71.00;;;;;;5053067;28;20029;-66
2021/03/13 08:53:35;;;;;;;144.45;62.25;;;14.60;70.20;;;;;;5052845;28;20025;-66
2021/03/13 08:56:02;;;;;;;103.00;47.67;;;14.90;69.10;;;;;;5053797;28;20075;-66
2021/03/13 08:58:44;;;;;;;184.90;79.13;;;15.20;68.40;;;;;;5051825;28;20025;-66
2021/03/13 09:01:18;;;;;;;169.75;70.90;;;15.40;67.60;;;;;;5051754;28;20056;-65
2021/03/13 09:03:52;;;;;;;167.50;72.10;;;15.80;66.90;;;;;;5038686;28;20087;-68
2021/03/13 09:06:19;;;;;;;223.82;97.80;;;16.10;65.90;;;;;;5051954;28;20063;-67
2021/03/13 09:08:46;;;;;;;181.55;77.55;;;16.30;64.40;;;;;;5053075;28;20060;-67
2021/03/13 09:11:12;;;;;;;204.98;91.50;;;16.40;61.80;;;;;;5052950;28;20021;-67
2021/03/13 09:13:38;;;;;;;251.65;113.53;;;16.30;62.70;;;;;;5052818;28;20027;-66
2021/03/13 09:16:19;;;;;;;283.52;125.55;;;16.40;60.60;;;;;;5053102;28;20023;-66
2021/03/13 09:18:55;;;;;;;268.35;121.25;;;16.10;59.70;;;;;;5051423;28;20021;-67
2021/03/13 09:21:45;;;;;;;264.48;118.88;;;15.90;61.00;;;;;;5051425;28;20047;-67
2021/03/13 09:24:24;;;;;;;246.15;114.22;;;16.00;63.10;;;;;;5051271;28;20075;-66
2021/03/13 09:26:52;;;;;;;170.43;78.85;;;15.90;60.00;;;;;;5051392;28;20033;-66
2021/03/13 09:29:41;;;;;;;143.52;62.78;;;15.40;59.40;;;;;;5052346;28;20100;-66
2021/03/13 09:32:12;;;;;;;187.32;77.40;;;14.70;58.60;;;;;;5052813;28;20027;-66
2021/03/13 09:34:44;;;;;;;144.25;61.45;;;14.10;60.20;;;;;;5052896;28;20478;-66
2021/03/13 09:37:17;;;;;;;154.65;65.45;;;13.80;61.30;;;;;;5052381;28;20033;-66
2021/03/13 09:39:45;;;;;;;171.35;73.53;;;13.60;61.50;;;;;;5051394;28;20021;-66
2021/03/13 09:42:19;;;;;;;122.75;56.35;;;13.60;63.00;;;;;;5051281;28;20021;-66
2021/03/13 09:44:54;;;;;;;160.27;64.82;;;13.70;62.30;;;;;;5051197;28;20036;-66
2021/03/13 09:47:21;;;;;;;111.03;47.90;;;14.00;63.40;;;;;;5056552;28;20036;-66
2021/03/13 09:49:58;;;;;;;114.68;50.50;;;14.10;62.80;;;;;;5055199;28;20383;-66
2021/03/13 09:52:32;;;;;;;121.50;52.45;;;14.30;63.40;;;;;;5056951;28;20100;-66
2021/03/13 09:55:11;;;;;;;88.72;41.38;;;14.90;62.20;;;;;;5055039;28;20356;-70
2021/03/13 09:57:39;;;;;;;81.43;38.97;;;15.30;62.90;;;;;;5055203;28;20025;-66
2021/03/13 10:00:09;;;;;;;109.40;46.40;;;15.70;61.80;;;;;;5055048;28;20512;-66
2021/03/13 10:02:35;;;;;;;87.00;37.88;;;16.00;59.80;;;;;;5056696;28;20483;-66
2021/03/13 10:05:01;;;;;;;89.00;38.22;;;16.10;60.10;;;;;;5056054;28;20120;-66
2021/03/13 10:07:28;;;;;;;61.53;30.52;;;16.30;59.50;;;;;;5054781;28;20029;-66
2021/03/13 10:09:59;;;;;;;37.17;22.33;;;16.50;58.60;;;;;;5055108;28;20071;-66
2021/03/13 10:12:27;;;;;;;80.07;36.00;;;16.60;58.50;;;;;;5054852;28;20387;-66
2021/03/13 10:14:53;;;;;;;82.88;37.80;;;16.70;57.90;;;;;;5054884;28;20116;-66
2021/03/13 10:17:19;;;;;;;74.97;36.60;;;16.60;58.10;;;;;;5055930;28;20107;-66
2021/03/13 10:19:45;;;;;;;76.75;36.13;;;16.40;57.00;;;;;;5056216;28;20075;-66
2021/03/13 10:22:11;;;;;;;65.13;30.85;;;16.10;57.10;;;;;;5054636;28;20029;-66
2021/03/13 10:24:54;;;;;;;31.23;20.08;;;16.10;58.10;;;;;;5056056;28;20444;-66
2021/03/13 10:27:21;;;;;;;35.20;20.95;;;16.60;59.20;;;;;;5054042;28;20033;-66
2021/03/13 10:29:55;;;;;;;30.00;19.63;;;16.90;56.90;;;;;;5056064;28;20045;-67
2021/03/13 10:32:24;;;;;;;27.45;18.48;;;16.80;55.00;;;;;;5054510;28;20028;-67
2021/03/13 10:35:14;;;;;;;24.85;18.15;;;16.60;54.90;;;;;;5054707;28;20032;-66
2021/03/13 10:37:49;;;;;;;25.88;18.33;;;16.60;54.30;;;;;;5055529;28;20471;-66
2021/03/13 10:40:37;;;;;;;29.75;18.92;;;16.30;54.10;;;;;;5054924;28;20050;-66
2021/03/13 10:43:10;;;;;;;29.60;18.83;;;15.90;54.60;;;;;;5055299;28;20063;-66
2021/03/13 10:45:36;;;;;;;32.30;19.40;;;15.40;55.30;;;;;;5055515;28;20021;-66
2021/03/13 10:48:06;;;;;;;44.70;25.23;;;15.60;55.80;;;;;;5055642;28;20028;-66
2021/03/13 10:50:34;;;;;;;58.95;31.90;;;15.60;54.60;;;;;;5055729;28;20021;-66
2021/03/13 10:52:59;;;;;;;65.75;31.65;;;15.50;55.50;;;;;;5053815;28;20486;-67
2021/03/13 10:55:39;;;;;;;28.45;19.88;;;15.70;56.90;;;;;;5054243;28;20033;-66
2021/03/13 10:58:04;;;;;;;32.80;21.23;;;16.10;56.40;;;;;;5054977;28;20502;-66
2021/03/13 11:00:30;;;;;;;31.38;19.50;;;16.30;56.20;;;;;;5055403;28;20036;-67
2021/03/13 11:02:56;;;;;;;29.63;18.35;;;16.60;55.70;;;;;;5055195;28;20021;-66
2021/03/13 11:05:22;;;;;;;27.40;15.93;;;16.70;54.20;;;;;;5054728;28;20073;-66
2021/03/13 11:07:49;;;;;;;23.95;15.60;;;16.70;53.60;;;;;;5055552;28;20029;-66
2021/03/13 11:10:14;;;;;;;25.13;17.23;;;16.80;53.60;;;;;;5053721;28;20051;-67
2021/03/13 11:12:40;;;;;;;26.17;17.90;;;16.90;53.80;;;;;;5053812;28;20029;-67
2021/03/13 11:15:06;;;;;;;27.15;16.60;;;17.20;54.10;;;;;;5055027;28;20134;-67
2021/03/13 11:17:32;;;;;;;24.02;16.85;;;17.40;53.40;;;;;;5053439;28;20037;-66
2021/03/13 11:19:58;;;;;;;24.20;16.92;;;17.50;52.90;;;;;;5054123;28;20044;-67
2021/03/13 11:22:23;;;;;;;24.08;16.75;;;17.50;52.30;;;;;;5054847;28;20049;-66
2021/03/13 11:24:49;;;;;;;22.75;17.10;;;17.40;51.70;;;;;;5055426;28;20021;-66
2021/03/13 11:27:15;;;;;;;22.85;15.05;;;17.10;50.50;;;;;;5054384;28;20033;-66
2021/03/13 11:29:41;;;;;;;24.35;16.80;;;16.70;51.10;;;;;;5053513;28;20428;-66
2021/03/13 11:32:07;;;;;;;23.85;16.38;;;16.50;51.80;;;;;;5054750;28;20025;-65
2021/03/13 11:34:33;;;;;;;22.75;15.38;;;16.30;52.70;;;;;;5053166;28;20021;-66
2021/03/13 11:36:58;;;;;;;22.42;14.18;;;16.30;51.60;;;;;;5054240;28;20029;-72
2021/03/13 11:39:24;;;;;;;22.67;15.77;;;16.20;51.50;;;;;;5054615;28;20029;-66
2021/03/13 11:41:52;;;;;;;21.95;15.52;;;16.00;51.60;;;;;;5054554;28;20110;-66
2021/03/13 11:44:17;;;;;;;25.60;16.52;;;15.90;53.00;;;;;;5054160;28;20029;-66
2021/03/13 11:46:43;;;;;;;24.23;16.30;;;15.90;53.80;;;;;;5054663;28;20036;-67
2021/03/13 11:49:09;;;;;;;25.35;16.50;;;15.90;53.30;;;;;;5052901;28;20025;-67
2021/03/13 11:51:34;;;;;;;22.20;15.43;;;15.80;53.30;;;;;;5054016;28;20096;-67
2021/03/13 11:54:00;;;;;;;19.63;12.90;;;15.70;53.60;;;;;;5053183;28;20028;-67
2021/03/13 11:56:26;;;;;;;22.48;15.05;;;15.70;53.40;;;;;;5054158;28;20387;-66
2021/03/13 11:58:51;;;;;;;23.65;15.73;;;15.30;53.50;;;;;;5054544;28;20033;-67
2021/03/13 12:01:19;;;;;;;21.35;11.93;;;15.00;53.10;;;;;;5052646;28;20548;-67
2021/03/13 12:03:44;;;;;;;25.50;16.65;;;14.70;52.70;;;;;;5054481;28;20021;-66
2021/03/13 12:06:11;;;;;;;25.40;15.35;;;14.30;54.10;;;;;;5052960;28;20450;-65
2021/03/13 12:08:37;;;;;;;23.17;15.65;;;14.20;55.20;;;;;;5052149;28;20526;-66
2021/03/13 12:11:02;;;;;;;27.48;17.25;;;14.10;55.90;;;;;;5053846;28;20108;-66
2021/03/13 12:13:28;;;;;;;26.90;16.67;;;14.10;56.20;;;;;;5053991;28;20029;-66
2021/03/13 12:15:54;;;;;;;28.05;17.38;;;14.10;57.00;;;;;;5052700;28;20029;-66
2021/03/13 12:18:20;;;;;;;23.20;15.50;;;13.90;56.50;;;;;;5054106;28;20040;-65
2021/03/13 12:20:45;;;;;;;25.75;16.08;;;13.80;57.40;;;;;;5053777;28;20025;-65
2021/03/13 12:23:11;;;;;;;24.05;14.63;;;13.80;57.30;;;;;;5053577;28;20357;-65
2021/03/13 12:25:37;;;;;;;24.45;16.67;;;13.70;56.60;;;;;;5053761;28;20029;-65
2021/03/13 12:28:02;;;;;;;25.95;15.30;;;13.40;56.20;;;;;;5053683;28;20025;-66
2021/03/13 12:30:28;;;;;;;32.45;20.75;;;13.10;57.00;;;;;;5053778;28;20487;-65
2021/03/13 12:32:56;;;;;;;26.83;17.25;;;12.80;57.80;;;;;;5052274;28;20029;-67
2021/03/13 12:35:22;;;;;;;25.90;17.00;;;12.30;58.20;;;;;;5053493;28;20025;-66
2021/03/13 12:37:47;;;;;;;27.48;17.60;;;12.00;59.30;;;;;;5053497;28;20108;-66
2021/03/13 12:40:14;;;;;;;40.13;23.10;;;11.80;59.80;;;;;;5053691;28;20045;-66
2021/03/13 12:42:40;;;;;;;33.22;19.92;;;11.50;60.70;;;;;;5051992;28;20052;-67